Time;durP1;ratioP1;P1;durP2;ratioP2;P2;SDS_P1;SDS_P2;PMS_P1;PMS_P2;Temp;Humidity;BMP_temperature;BMP_pressure;BME280_temperature;BME280_humidity;BME280_pressure;Samples;Min_cycle;Max_cycle;Signal;HPM_P1;HPM_P2
2022/10/14 00:08:44;;;;;;;;;;;;;;;5.62;78.99;99762.40;419736;1281;147864;-62
2022/10/14 00:18:50;;;;;;;24.30;20.10;;;;;;;5.53;79.40;99762.38;421780;1281;130518;-63
2022/10/14 00:28:58;;;;;;;32.30;25.50;;;;;;;5.38;79.35;99759.88;419892;1281;142045;-63
2022/10/14 00:39:04;;;;;;;34.80;26.60;;;;;;;5.29;79.84;99755.89;420321;1281;148079;-62
2022/10/14 00:49:13;;;;;;;37.40;27.00;;;;;;;5.28;80.55;99741.14;420292;1281;142552;-63
2022/10/14 00:59:19;;;;;;;33.70;25.60;;;;;;;5.23;80.95;99738.23;420267;1277;164023;-63
2022/10/14 01:09:33;;;;;;;34.50;26.40;;;;;;;5.22;81.48;99729.93;421202;1281;145110;-63
2022/10/14 01:20:06;;;;;;;32.40;26.30;;;;;;;5.25;81.86;99724.09;421835;1274;145256;-62
2022/10/14 01:30:16;;;;;;;32.10;25.10;;;;;;;5.22;82.15;99712.93;420328;1274;143758;-64
2022/10/14 01:40:31;;;;;;;34.10;26.00;;;;;;;5.16;82.50;99705.88;421295;1281;146018;-64
2022/10/14 01:50:39;;;;;;;34.50;25.00;;;;;;;5.13;82.70;99701.30;419500;1276;141866;-63
2022/10/14 02:00:46;;;;;;;31.30;23.90;;;;;;;5.05;82.61;99700.06;420235;1281;196281;-63
2022/10/14 02:11:07;;;;;;;32.80;25.00;;;;;;;4.91;82.71;99702.34;421843;1281;143211;-62
2022/10/14 02:21:22;;;;;;;34.90;27.30;;;;;;;4.88;83.25;99696.39;421646;1274;200073;-63
2022/10/14 02:31:31;;;;;;;32.90;25.80;;;;;;;4.79;82.99;99690.66;420744;1281;146316;-64
2022/10/14 02:41:39;;;;;;;37.30;28.80;;;;;;;4.71;83.17;99681.43;419150;1274;200172;-64
2022/10/14 02:51:44;;;;;;;33.80;28.00;;;;;;;4.82;84.12;99674.76;420338;1281;145855;-63
2022/10/14 03:01:50;;;;;;;41.20;28.50;;;;;;;4.93;84.51;99672.61;420162;1275;141438;-63
2022/10/14 03:11:56;;;;;;;37.50;28.20;;;;;;;4.98;84.56;99668.23;419694;1275;146040;-64
2022/10/14 03:22:02;;;;;;;35.00;26.40;;;;;;;5.09;84.83;99665.38;420803;1281;142416;-62
2022/10/14 03:32:08;;;;;;;35.20;25.70;;;;;;;5.18;83.96;99669.34;421727;1275;142452;-62
2022/10/14 03:42:14;;;;;;;30.40;24.70;;;;;;;5.14;83.50;99674.02;420325;1274;208739;-64
2022/10/14 03:52:20;;;;;;;34.90;24.30;;;;;;;5.11;83.48;99671.73;422029;1281;140702;-64
2022/10/14 04:02:26;;;;;;;32.30;24.50;;;;;;;5.14;83.49;99670.05;420351;1282;142539;-64
2022/10/14 04:12:32;;;;;;;35.90;26.30;;;;;;;5.33;84.13;99661.98;423288;1275;142538;-64
2022/10/14 04:22:38;;;;;;;32.50;24.90;;;;;;;5.44;84.07;99650.61;419765;1274;142809;-63
2022/10/14 04:32:45;;;;;;;34.70;27.30;;;;;;;5.32;84.30;99638.61;421108;1275;142654;-64
2022/10/14 04:42:53;;;;;;;34.30;26.50;;;;;;;5.21;84.56;99633.13;419788;1275;180974;-64
2022/10/14 04:52:59;;;;;;;35.50;27.20;;;;;;;5.16;85.00;99624.84;421559;1281;142585;-63
2022/10/14 05:03:05;;;;;;;33.00;26.50;;;;;;;5.13;85.37;99612.79;427164;1275;141945;-63
2022/10/14 05:13:11;;;;;;;34.20;26.80;;;;;;;5.15;85.63;99608.02;426773;1275;145408;-63
2022/10/14 05:23:17;;;;;;;39.00;29.10;;;;;;;5.29;86.13;99604.53;430830;1281;145481;-63
2022/10/14 05:33:22;;;;;;;38.80;28.20;;;;;;;5.66;86.39;99601.38;426934;1274;144589;-63
2022/10/14 05:43:28;;;;;;;38.30;27.90;;;;;;;6.02;85.84;99602.27;436683;1267;142773;-64
2022/10/14 05:53:38;;;;;;;32.90;27.60;;;;;;;6.52;85.57;99606.62;436081;1281;144380;-63
2022/10/14 06:03:44;;;;;;;34.60;28.50;;;;;;;7.32;84.66;99617.05;436729;1281;143058;-63
2022/10/14 06:13:50;;;;;;;32.00;24.50;;;;;;;8.38;82.97;99613.69;436787;1281;143836;-65
2022/10/14 06:23:55;;;;;;;32.50;23.50;;;;;;;8.89;81.72;99613.90;436078;1281;144649;-63
2022/10/14 06:34:04;;;;;;;32.40;24.40;;;;;;;10.45;80.56;99617.67;427645;1274;145958;-64
2022/10/14 06:44:09;;;;;;;;;;;;;;;12.92;76.85;99610.54;436803;1275;143204;-63
2022/10/14 06:54:16;;;;;;;27.10;22.50;;;;;;;15.07;71.93;99599.46;436613;1282;198725;-63
2022/10/14 07:04:22;;;;;;;28.60;23.70;;;;;;;16.22;68.95;99610.36;436812;1274;144194;-64
2022/10/14 07:14:27;;;;;;;27.80;24.70;;;;;;;16.52;66.20;99613.27;436061;1281;142303;-64
2022/10/14 07:24:33;;;;;;;26.70;24.00;;;;;;;17.65;64.61;99605.50;436845;1281;143423;-63
2022/10/14 07:34:39;;;;;;;30.50;24.00;;;;;;;18.55;61.35;99611.96;427959;1282;145152;-66
2022/10/14 07:44:45;;;;;;;25.80;22.40;;;;;;;18.88;60.91;99624.94;435198;1281;141613;-64
2022/10/14 07:54:50;;;;;;;32.60;26.10;;;;;;;22.15;56.98;99620.40;436938;1275;142396;-63
2022/10/14 08:04:57;;;;;;;26.50;23.80;;;;;;;24.13;53.19;99611.89;436838;1287;142761;-62
2022/10/14 08:15:21;;;;;;;;;;;;;;;24.42;50.25;99613.59;436357;1273;142494;-62
2022/10/14 08:25:27;;;;;;;29.10;23.60;;;;;;;23.89;49.22;99610.08;437111;1288;131747;-63
2022/10/14 08:35:33;;;;;;;28.10;24.10;;;;;;;24.61;48.15;99599.27;436144;1281;141834;-62
2022/10/14 08:45:43;;;;;;;27.40;24.50;;;;;;;27.82;44.95;99593.42;436902;1275;143233;-62
2022/10/14 08:55:53;;;;;;;27.10;24.60;;;;;;;27.31;43.33;99593.93;431115;1282;142903;-65
2022/10/14 09:06:02;;;;;;;28.20;24.00;;;;;;;26.46;43.20;99586.66;436113;1274;144912;-63
2022/10/14 09:16:14;;;;;;;36.60;28.30;;;;;;;24.47;43.60;99581.95;436890;1281;142324;-63
2022/10/14 09:26:21;;;;;;;29.80;24.20;;;;;;;21.65;46.29;99583.52;436124;1275;141229;-63
2022/10/14 09:36:28;;;;;;;30.30;26.10;;;;;;;21.06;48.28;99582.23;428085;1274;146120;-63
2022/10/14 09:46:34;;;;;;;32.50;24.30;;;;;;;20.71;49.10;99577.45;428994;1275;140859;-63
2022/10/14 09:56:41;;;;;;;29.10;24.40;;;;;;;20.34;50.22;99572.60;436151;1281;143165;-63
2022/10/14 10:06:54;;;;;;;26.50;23.60;;;;;;;19.72;50.81;99566.38;436809;1287;142882;-63
2022/10/14 10:17:18;;;;;;;27.90;23.40;;;;;;;19.12;52.27;99563.14;436814;1282;142243;-64
2022/10/14 10:27:27;;;;;;;28.00;23.00;;;;;;;18.87;53.24;99556.59;436292;1274;207872;-63
2022/10/14 10:37:36;;;;;;;29.30;24.20;;;;;;;18.90;53.88;99554.10;434549;1284;143170;-63
2022/10/14 10:47:47;;;;;;;32.00;25.80;;;;;;;18.93;54.16;99553.35;436132;1280;144703;-64
2022/10/14 10:58:03;;;;;;;27.00;23.60;;;;;;;18.73;54.37;99549.05;436898;1284;144230;-63
2022/10/14 11:19:06;;;;;;;25.70;22.50;;;;;;;19.43;53.71;99524.21;436756;1275;143206;-63
2022/10/14 11:29:34;;;;;;;27.30;24.50;;;;;;;19.23;53.98;99520.77;436094;1281;155470;-62
2022/10/14 11:39:47;;;;;;;34.50;22.00;;;;;;;18.93;54.16;99514.41;424247;1275;144600;-63
2022/10/14 11:50:00;;;;;;;27.00;19.60;;;;;;;18.08;54.90;99513.73;436847;1284;143358;-63
2022/10/14 12:00:13;;;;;;;24.30;19.40;;;;;;;17.56;55.75;99510.51;436080;1281;143584;-65
2022/10/14 12:10:27;;;;;;;21.50;16.90;;;;;;;17.79;56.07;99492.91;436846;1281;144679;-64
2022/10/14 12:20:40;;;;;;;35.00;16.50;;;;;;;18.11;55.43;99487.95;436129;1275;145920;-63
2022/10/14 12:30:47;;;;;;;26.30;16.80;;;;;;;17.75;55.46;99483.33;436859;1276;142319;-64
2022/10/14 12:40:53;;;;;;;21.70;14.50;;;;;;;17.55;55.94;99479.98;423129;1275;142790;-64
2022/10/14 12:51:07;;;;;;;19.20;16.80;;;;;;;17.62;56.20;99474.98;430447;1278;144147;-63
2022/10/14 13:01:20;;;;;;;19.40;15.10;;;;;;;17.55;56.21;99469.39;436839;1282;143254;-64
2022/10/14 13:11:28;;;;;;;15.70;14.10;;;;;;;17.63;56.30;99465.56;436024;1281;142431;-64
2022/10/14 13:21:52;;;;;;;20.80;14.50;;;;;;;17.63;56.09;99459.39;436818;1281;141126;-64
2022/10/14 13:32:06;;;;;;;22.90;16.50;;;;;;;17.43;56.14;99454.90;436875;1284;142093;-63
2022/10/14 13:42:17;;;;;;;17.80;14.50;;;;;;;17.23;56.58;99458.21;431707;1287;142786;-63
2022/10/14 13:52:26;;;;;;;17.50;14.50;;;;;;;16.99;56.46;99450.29;436880;1287;144235;-64
2022/10/14 14:02:32;;;;;;;19.20;15.00;;;;;;;16.72;57.03;99451.17;436039;1274;144421;-63
2022/10/14 14:12:41;;;;;;;21.10;14.50;;;;;;;16.67;57.30;99448.77;436875;1282;196856;-64
2022/10/14 14:22:46;;;;;;;17.50;14.50;;;;;;;16.51;57.93;99446.02;436824;1283;143059;-64
2022/10/14 14:32:54;;;;;;;20.00;14.90;;;;;;;16.37;58.30;99447.79;435834;1280;142817;-63
2022/10/14 14:43:03;;;;;;;16.70;14.40;;;;;;;16.18;58.87;99446.68;436825;1274;143561;-63
2022/10/14 14:53:15;;;;;;;19.80;15.50;;;;;;;15.83;59.50;99441.98;436842;1287;144060;-63
2022/10/14 15:03:21;;;;;;;21.80;17.20;;;;;;;15.53;60.04;99440.48;436363;1287;142761;-63
2022/10/14 15:13:44;;;;;;;20.70;16.90;;;;;;;15.31;60.57;99440.77;436846;1274;142317;-64
2022/10/14 15:24:02;;;;;;;26.80;20.30;;;;;;;15.05;61.16;99441.75;436025;1287;142884;-63
2022/10/14 15:34:14;;;;;;;;;;;;;;;14.72;61.93;99436.94;435179;1274;142908;-64
2022/10/14 15:44:20;;;;;;;30.90;20.50;;;;;;;14.33;62.96;99432.55;429670;1281;129238;-63
2022/10/14 15:54:26;;;;;;;30.90;21.70;;;;;;;13.92;63.87;99431.95;436690;1280;144346;-63
2022/10/14 16:04:32;;;;;;;29.30;21.50;;;;;;;13.57;64.87;99434.74;436667;1286;143730;-63
2022/10/14 16:14:38;;;;;;;29.20;24.10;;;;;;;13.18;65.66;99436.49;436044;1280;143454;-63
2022/10/14 16:24:43;;;;;;;28.00;20.30;;;;;;;12.81;66.47;99436.34;436818;1288;145319;-65
2022/10/14 16:34:49;;;;;;;27.80;20.30;;;;;;;12.45;67.51;99430.50;436809;1287;142662;-63
2022/10/14 16:44:55;;;;;;;30.50;25.10;;;;;;;12.11;68.00;99436.85;431079;1281;142658;-64
2022/10/14 16:55:00;;;;;;;30.50;20.90;;;;;;;11.77;68.77;99449.81;436822;1286;143861;-65
2022/10/14 17:05:08;;;;;;;33.60;22.70;;;;;;;11.28;69.38;99453.22;436825;1282;143169;-64
2022/10/14 17:15:13;;;;;;;55.20;25.80;;;;;;;10.88;70.13;99458.00;436080;1281;145853;-63
2022/10/14 17:25:19;;;;;;;49.70;28.40;;;;;;;10.51;70.97;99451.32;436794;1280;143446;-64
2022/10/14 17:35:25;;;;;;;45.10;28.90;;;;;;;10.19;71.32;99451.42;436057;1287;144126;-64
2022/10/14 17:45:31;;;;;;;54.50;28.90;;;;;;;9.86;71.23;99450.73;427351;1281;142872;-64
2022/10/14 17:55:37;;;;;;;46.60;28.70;;;;;;;9.63;71.96;99444.10;420542;1288;144132;-64
2022/10/14 18:05:44;;;;;;;58.50;30.60;;;;;;;9.48;72.25;99448.37;420007;1281;144240;-64
2022/10/14 18:15:53;;;;;;;53.40;34.50;;;;;;;9.29;72.84;99442.17;426369;1280;146287;-63
2022/10/14 18:26:05;;;;;;;50.20;33.10;;;;;;;9.17;73.48;99438.38;421313;1281;142983;-64
2022/10/14 18:36:18;;;;;;;52.30;35.00;;;;;;;9.19;73.94;99433.34;422241;1287;199032;-64
2022/10/14 18:46:29;;;;;;;53.70;34.10;;;;;;;9.19;74.29;99434.73;422277;1281;142861;-64
2022/10/14 18:56:37;;;;;;;58.00;35.70;;;;;;;8.98;74.51;99429.34;425703;1281;142953;-64
2022/10/14 19:06:45;;;;;;;52.50;35.10;;;;;;;8.78;75.08;99438.40;426452;1279;144493;-63
2022/10/14 19:16:51;;;;;;;62.20;46.50;;;;;;;8.61;75.63;99436.61;420528;1275;194433;-63
2022/10/14 19:26:57;;;;;;;63.40;45.50;;;;;;;8.64;77.93;99435.86;428101;1282;147068;-63
2022/10/14 19:37:03;;;;;;;53.50;40.70;;;;;;;8.57;78.55;99437.48;432615;1274;143222;-63
2022/10/14 19:47:09;;;;;;;65.70;43.20;;;;;;;8.32;78.24;99430.20;433057;1282;143404;-63
2022/10/14 19:57:15;;;;;;;67.50;48.20;;;;;;;8.20;79.05;99426.17;425913;1281;143281;-63
2022/10/14 20:07:20;;;;;;;56.90;43.00;;;;;;;8.18;80.19;99419.77;436697;1282;143745;-64
2022/10/14 20:17:27;;;;;;;66.10;46.30;;;;;;;8.26;81.31;99413.77;435882;1278;145011;-65
2022/10/14 20:27:33;;;;;;;55.70;45.70;;;;;;;8.33;81.89;99411.84;436741;1282;145519;-64
2022/10/14 20:37:38;;;;;;;54.60;42.60;;;;;;;8.26;81.80;99418.14;435039;1281;144172;-63
2022/10/14 20:47:44;;;;;;;63.30;45.50;;;;;;;8.02;81.23;99420.48;435998;1281;144269;-64
2022/10/14 20:57:54;;;;;;;62.40;48.30;;;;;;;7.99;82.38;99418.39;436681;1279;143061;-64
2022/10/14 21:08:00;;;;;;;55.30;46.60;;;;;;;7.99;82.86;99420.69;429693;1281;144548;-63
2022/10/14 21:18:06;;;;;;;54.10;42.60;;;;;;;7.94;83.39;99417.27;432280;1274;143019;-62
2022/10/14 21:28:12;;;;;;;62.50;45.00;;;;;;;7.91;83.76;99406.32;422922;1281;143660;-63
2022/10/14 21:38:18;;;;;;;60.90;41.50;;;;;;;7.78;84.06;99399.19;435821;1282;143023;-64
2022/10/14 21:48:24;;;;;;;59.90;42.00;;;;;;;7.70;84.59;99398.23;436601;1287;145462;-63
2022/10/14 21:58:30;;;;;;;55.60;38.80;;;;;;;7.71;85.18;99390.30;436703;1275;143755;-63
2022/10/14 22:08:37;;;;;;;53.70;40.40;;;;;;;7.68;85.58;99390.64;435953;1283;197844;-64
2022/10/14 22:18:45;;;;;;;54.90;40.80;;;;;;;7.71;86.09;99383.36;436643;1281;142818;-63
2022/10/14 22:28:56;;;;;;;49.20;37.40;;;;;;;7.79;86.71;99379.77;436507;1281;191140;-64
2022/10/14 22:39:05;;;;;;;53.70;37.60;;;;;;;7.71;86.58;99383.86;435906;1274;144777;-64
2022/10/14 22:49:10;;;;;;;52.50;39.50;;;;;;;7.65;86.58;99381.93;436686;1280;142075;-63
2022/10/14 22:59:16;;;;;;;54.70;39.60;;;;;;;7.66;86.57;99386.07;435955;1281;143945;-64
2022/10/14 23:09:22;;;;;;;52.90;38.10;;;;;;;7.65;87.02;99379.33;429835;1275;142832;-63
2022/10/14 23:19:28;;;;;;;46.00;38.20;;;;;;;7.57;87.32;99380.29;425368;1274;143093;-62
2022/10/14 23:29:33;;;;;;;52.10;38.20;;;;;;;7.44;87.68;99374.73;435920;1278;143877;-64
2022/10/14 23:39:39;;;;;;;54.80;38.70;;;;;;;7.40;88.07;99363.41;436610;1281;142289;-63
2022/10/14 23:49:45;;;;;;;51.90;35.90;;;;;;;7.35;88.51;99357.63;425741;1274;145781;-63
2022/10/14 23:59:50;;;;;;;53.10;39.00;;;;;;;7.25;88.77;99363.70;435272;1281;143126;-63
